sensor_id;sensor_type;location;lat;lon;timestamp;P1;durP1;ratioP1;P2;durP2;ratioP2
19735;SDS011;32064;49.310;8.646;2023-05-07T00:00:52;1.55;;;1.20;;
19735;SDS011;32064;49.310;8.646;2023-05-07T00:03:17;2.70;;;1.33;;
19735;SDS011;32064;49.310;8.646;2023-05-07T00:05:44;4.10;;;1.75;;
19735;SDS011;32064;49.310;8.646;2023-05-07T00:08:09;3.35;;;1.80;;
19735;SDS011;32064;49.310;8.646;2023-05-07T00:10:35;2.10;;;1.40;;
19735;SDS011;32064;49.310;8.646;2023-05-07T00:13:00;1.90;;;1.40;;
19735;SDS011;32064;49.310;8.646;2023-05-07T00:15:26;2.40;;;1.58;;
19735;SDS011;32064;49.310;8.646;2023-05-07T00:17:51;1.73;;;1.60;;
19735;SDS011;32064;49.310;8.646;2023-05-07T00:20:17;1.58;;;1.48;;
19735;SDS011;32064;49.310;8.646;2023-05-07T00:22:42;2.03;;;1.30;;
19735;SDS011;32064;49.310;8.646;2023-05-07T00:25:07;2.35;;;1.40;;
19735;SDS011;32064;49.310;8.646;2023-05-07T00:27:33;2.63;;;1.70;;
19735;SDS011;32064;49.310;8.646;2023-05-07T00:29:59;2.67;;;1.40;;
19735;SDS011;32064;49.310;8.646;2023-05-07T00:32:24;2.05;;;1.50;;
19735;SDS011;32064;49.310;8.646;2023-05-07T00:34:49;2.60;;;1.40;;
19735;SDS011;32064;49.310;8.646;2023-05-07T00:37:16;1.50;;;1.40;;
19735;SDS011;32064;49.310;8.646;2023-05-07T00:39:41;3.13;;;1.48;;
19735;SDS011;32064;49.310;8.646;2023-05-07T00:42:06;4.93;;;1.63;;
19735;SDS011;32064;49.310;8.646;2023-05-07T00:44:33;1.63;;;1.40;;
19735;SDS011;32064;49.310;8.646;2023-05-07T00:46:58;2.95;;;1.45;;
19735;SDS011;32064;49.310;8.646;2023-05-07T00:49:46;3.10;;;1.50;;
19735;SDS011;32064;49.310;8.646;2023-05-07T00:52:13;2.08;;;1.42;;
19735;SDS011;32064;49.310;8.646;2023-05-07T00:54:41;2.10;;;1.58;;
19735;SDS011;32064;49.310;8.646;2023-05-07T00:57:07;2.13;;;1.50;;
19735;SDS011;32064;49.310;8.646;2023-05-07T00:59:34;6.15;;;1.60;;
19735;SDS011;32064;49.310;8.646;2023-05-07T01:02:00;2.25;;;1.40;;
19735;SDS011;32064;49.310;8.646;2023-05-07T01:04:26;2.60;;;1.33;;
19735;SDS011;32064;49.310;8.646;2023-05-07T01:06:52;1.55;;;1.42;;
19735;SDS011;32064;49.310;8.646;2023-05-07T01:09:19;2.78;;;1.40;;
19735;SDS011;32064;49.310;8.646;2023-05-07T01:11:46;1.88;;;1.40;;
19735;SDS011;32064;49.310;8.646;2023-05-07T01:14:12;2.50;;;1.27;;
19735;SDS011;32064;49.310;8.646;2023-05-07T01:16:38;2.08;;;1.40;;
19735;SDS011;32064;49.310;8.646;2023-05-07T01:19:06;1.73;;;1.52;;
19735;SDS011;32064;49.310;8.646;2023-05-07T01:21:33;1.60;;;1.50;;
19735;SDS011;32064;49.310;8.646;2023-05-07T01:24:00;1.33;;;1.23;;
19735;SDS011;32064;49.310;8.646;2023-05-07T01:26:26;2.38;;;1.55;;
19735;SDS011;32064;49.310;8.646;2023-05-07T01:28:51;2.08;;;1.50;;
19735;SDS011;32064;49.310;8.646;2023-05-07T01:31:16;2.45;;;1.23;;
19735;SDS011;32064;49.310;8.646;2023-05-07T01:33:42;2.58;;;1.90;;
19735;SDS011;32064;49.310;8.646;2023-05-07T01:36:11;5.07;;;1.92;;
19735;SDS011;32064;49.310;8.646;2023-05-07T01:38:37;1.70;;;1.60;;
19735;SDS011;32064;49.310;8.646;2023-05-07T01:41:05;4.25;;;1.90;;
19735;SDS011;32064;49.310;8.646;2023-05-07T01:43:31;2.55;;;1.90;;
19735;SDS011;32064;49.310;8.646;2023-05-07T01:45:57;2.80;;;1.70;;
19735;SDS011;32064;49.310;8.646;2023-05-07T01:48:24;2.55;;;1.52;;
19735;SDS011;32064;49.310;8.646;2023-05-07T01:50:49;1.73;;;1.40;;
19735;SDS011;32064;49.310;8.646;2023-05-07T01:53:16;2.63;;;1.75;;
19735;SDS011;32064;49.310;8.646;2023-05-07T01:55:41;1.27;;;1.17;;
19735;SDS011;32064;49.310;8.646;2023-05-07T01:58:07;1.45;;;1.35;;
19735;SDS011;32064;49.310;8.646;2023-05-07T02:00:32;2.60;;;1.35;;
19735;SDS011;32064;49.310;8.646;2023-05-07T02:02:58;1.52;;;1.42;;
19735;SDS011;32064;49.310;8.646;2023-05-07T02:05:23;1.58;;;1.40;;
19735;SDS011;32064;49.310;8.646;2023-05-07T02:07:49;1.60;;;1.40;;
19735;SDS011;32064;49.310;8.646;2023-05-07T02:10:14;2.20;;;1.77;;
19735;SDS011;32064;49.310;8.646;2023-05-07T02:12:40;5.18;;;1.63;;
19735;SDS011;32064;49.310;8.646;2023-05-07T02:15:05;4.30;;;1.95;;
19735;SDS011;32064;49.310;8.646;2023-05-07T02:17:31;2.55;;;2.00;;
19735;SDS011;32064;49.310;8.646;2023-05-07T02:19:59;2.13;;;1.67;;
19735;SDS011;32064;49.310;8.646;2023-05-07T02:22:25;1.65;;;1.55;;
19735;SDS011;32064;49.310;8.646;2023-05-07T02:24:50;1.77;;;1.30;;
19735;SDS011;32064;49.310;8.646;2023-05-07T02:27:16;2.13;;;1.60;;
19735;SDS011;32064;49.310;8.646;2023-05-07T02:29:41;1.40;;;1.30;;
19735;SDS011;32064;49.310;8.646;2023-05-07T02:32:06;1.45;;;1.30;;
19735;SDS011;32064;49.310;8.646;2023-05-07T02:34:32;1.40;;;1.30;;
19735;SDS011;32064;49.310;8.646;2023-05-07T02:36:57;1.60;;;1.40;;
19735;SDS011;32064;49.310;8.646;2023-05-07T02:39:23;1.40;;;1.30;;
19735;SDS011;32064;49.310;8.646;2023-05-07T02:41:48;4.35;;;1.50;;
19735;SDS011;32064;49.310;8.646;2023-05-07T02:44:14;1.25;;;1.20;;
19735;SDS011;32064;49.310;8.646;2023-05-07T02:46:39;1.67;;;1.50;;
19735;SDS011;32064;49.310;8.646;2023-05-07T02:49:05;3.00;;;1.40;;
19735;SDS011;32064;49.310;8.646;2023-05-07T02:51:31;2.20;;;1.50;;
19735;SDS011;32064;49.310;8.646;2023-05-07T02:53:56;1.42;;;1.27;;
19735;SDS011;32064;49.310;8.646;2023-05-07T02:56:22;1.88;;;1.58;;
19735;SDS011;32064;49.310;8.646;2023-05-07T02:58:47;1.50;;;1.40;;
19735;SDS011;32064;49.310;8.646;2023-05-07T03:01:13;2.13;;;1.58;;
19735;SDS011;32064;49.310;8.646;2023-05-07T03:03:39;1.77;;;1.60;;
19735;SDS011;32064;49.310;8.646;2023-05-07T03:06:04;2.10;;;1.90;;
19735;SDS011;32064;49.310;8.646;2023-05-07T03:08:30;2.03;;;1.65;;
19735;SDS011;32064;49.310;8.646;2023-05-07T03:10:55;1.80;;;1.58;;
19735;SDS011;32064;49.310;8.646;2023-05-07T03:13:21;1.60;;;1.50;;
19735;SDS011;32064;49.310;8.646;2023-05-07T03:15:46;1.52;;;1.35;;
19735;SDS011;32064;49.310;8.646;2023-05-07T03:18:12;2.20;;;1.52;;
19735;SDS011;32064;49.310;8.646;2023-05-07T03:20:37;2.15;;;1.50;;
19735;SDS011;32064;49.310;8.646;2023-05-07T03:23:03;2.47;;;1.60;;
19735;SDS011;32064;49.310;8.646;2023-05-07T03:25:28;2.00;;;1.70;;
19735;SDS011;32064;49.310;8.646;2023-05-07T03:27:55;2.85;;;1.70;;
19735;SDS011;32064;49.310;8.646;2023-05-07T03:30:21;3.03;;;1.85;;
19735;SDS011;32064;49.310;8.646;2023-05-07T03:32:46;1.95;;;1.70;;
19735;SDS011;32064;49.310;8.646;2023-05-07T03:35:11;3.50;;;1.70;;
19735;SDS011;32064;49.310;8.646;2023-05-07T03:37:37;2.20;;;1.80;;
19735;SDS011;32064;49.310;8.646;2023-05-07T03:40:03;3.75;;;1.67;;
19735;SDS011;32064;49.310;8.646;2023-05-07T03:42:29;2.63;;;1.92;;
19735;SDS011;32064;49.310;8.646;2023-05-07T03:44:54;2.90;;;1.63;;
19735;SDS011;32064;49.310;8.646;2023-05-07T03:47:20;4.60;;;2.13;;
19735;SDS011;32064;49.310;8.646;2023-05-07T03:49:45;2.03;;;1.83;;
19735;SDS011;32064;49.310;8.646;2023-05-07T03:52:11;2.17;;;1.48;;
19735;SDS011;32064;49.310;8.646;2023-05-07T03:54:36;2.25;;;1.83;;
19735;SDS011;32064;49.310;8.646;2023-05-07T03:57:01;4.00;;;2.08;;
19735;SDS011;32064;49.310;8.646;2023-05-07T03:59:27;2.65;;;1.75;;
19735;SDS011;32064;49.310;8.646;2023-05-07T04:01:52;2.50;;;1.77;;
19735;SDS011;32064;49.310;8.646;2023-05-07T04:04:17;5.10;;;1.95;;
19735;SDS011;32064;49.310;8.646;2023-05-07T04:06:43;1.92;;;1.65;;
19735;SDS011;32064;49.310;8.646;2023-05-07T04:09:08;2.30;;;2.10;;
19735;SDS011;32064;49.310;8.646;2023-05-07T04:11:34;2.85;;;2.13;;
19735;SDS011;32064;49.310;8.646;2023-05-07T04:14:00;2.47;;;2.03;;
19735;SDS011;32064;49.310;8.646;2023-05-07T04:16:26;2.00;;;1.80;;
19735;SDS011;32064;49.310;8.646;2023-05-07T04:18:51;4.32;;;2.25;;
19735;SDS011;32064;49.310;8.646;2023-05-07T04:21:17;2.05;;;1.85;;
19735;SDS011;32064;49.310;8.646;2023-05-07T04:23:45;3.80;;;2.33;;
19735;SDS011;32064;49.310;8.646;2023-05-07T04:26:11;4.93;;;2.10;;
19735;SDS011;32064;49.310;8.646;2023-05-07T04:28:37;2.50;;;2.13;;
19735;SDS011;32064;49.310;8.646;2023-05-07T04:31:04;3.00;;;2.45;;
19735;SDS011;32064;49.310;8.646;2023-05-07T04:33:29;3.20;;;2.50;;
19735;SDS011;32064;49.310;8.646;2023-05-07T04:35:55;3.17;;;2.60;;
19735;SDS011;32064;49.310;8.646;2023-05-07T04:38:20;4.70;;;2.53;;
19735;SDS011;32064;49.310;8.646;2023-05-07T04:40:46;2.70;;;2.33;;
19735;SDS011;32064;49.310;8.646;2023-05-07T04:43:12;3.20;;;2.42;;
19735;SDS011;32064;49.310;8.646;2023-05-07T04:45:38;4.50;;;3.00;;
19735;SDS011;32064;49.310;8.646;2023-05-07T04:48:06;4.00;;;2.50;;
19735;SDS011;32064;49.310;8.646;2023-05-07T04:50:32;3.67;;;2.60;;
19735;SDS011;32064;49.310;8.646;2023-05-07T04:52:57;6.10;;;2.83;;
19735;SDS011;32064;49.310;8.646;2023-05-07T04:55:23;2.70;;;2.40;;
19735;SDS011;32064;49.310;8.646;2023-05-07T04:57:49;2.67;;;2.42;;
19735;SDS011;32064;49.310;8.646;2023-05-07T05:00:15;4.03;;;2.42;;
19735;SDS011;32064;49.310;8.646;2023-05-07T05:02:41;4.07;;;2.40;;
19735;SDS011;32064;49.310;8.646;2023-05-07T05:05:07;2.20;;;2.00;;
19735;SDS011;32064;49.310;8.646;2023-05-07T05:07:32;4.35;;;2.47;;
19735;SDS011;32064;49.310;8.646;2023-05-07T05:09:58;4.57;;;2.20;;
19735;SDS011;32064;49.310;8.646;2023-05-07T05:12:24;2.17;;;1.85;;
19735;SDS011;32064;49.310;8.646;2023-05-07T05:14:49;2.83;;;1.90;;
19735;SDS011;32064;49.310;8.646;2023-05-07T05:17:15;1.50;;;1.40;;
19735;SDS011;32064;49.310;8.646;2023-05-07T05:19:40;1.25;;;1.15;;
19735;SDS011;32064;49.310;8.646;2023-05-07T05:22:05;2.53;;;1.30;;
19735;SDS011;32064;49.310;8.646;2023-05-07T05:24:31;3.47;;;1.40;;
19735;SDS011;32064;49.310;8.646;2023-05-07T05:26:56;1.38;;;1.00;;
19735;SDS011;32064;49.310;8.646;2023-05-07T05:29:22;1.63;;;1.17;;
19735;SDS011;32064;49.310;8.646;2023-05-07T05:31:47;1.40;;;1.30;;
19735;SDS011;32064;49.310;8.646;2023-05-07T05:34:13;1.65;;;1.02;;
19735;SDS011;32064;49.310;8.646;2023-05-07T05:36:38;1.83;;;1.10;;
19735;SDS011;32064;49.310;8.646;2023-05-07T05:39:04;1.10;;;1.00;;
19735;SDS011;32064;49.310;8.646;2023-05-07T05:41:29;1.77;;;1.10;;
19735;SDS011;32064;49.310;8.646;2023-05-07T05:43:55;2.30;;;1.13;;
19735;SDS011;32064;49.310;8.646;2023-05-07T05:46:21;1.33;;;0.98;;
19735;SDS011;32064;49.310;8.646;2023-05-07T05:48:46;1.08;;;0.90;;
19735;SDS011;32064;49.310;8.646;2023-05-07T05:51:12;1.50;;;1.10;;
19735;SDS011;32064;49.310;8.646;2023-05-07T05:53:37;1.33;;;1.05;;
19735;SDS011;32064;49.310;8.646;2023-05-07T05:56:02;4.00;;;1.10;;
19735;SDS011;32064;49.310;8.646;2023-05-07T05:58:28;1.10;;;1.00;;
19735;SDS011;32064;49.310;8.646;2023-05-07T06:00:54;2.35;;;1.35;;
19735;SDS011;32064;49.310;8.646;2023-05-07T06:03:20;1.25;;;1.00;;
19735;SDS011;32064;49.310;8.646;2023-05-07T06:05:45;1.10;;;0.88;;
19735;SDS011;32064;49.310;8.646;2023-05-07T06:08:11;1.20;;;0.90;;
19735;SDS011;32064;49.310;8.646;2023-05-07T06:10:36;1.00;;;0.90;;
19735;SDS011;32064;49.310;8.646;2023-05-07T06:13:02;0.98;;;0.95;;
19735;SDS011;32064;49.310;8.646;2023-05-07T06:15:28;1.80;;;1.30;;
19735;SDS011;32064;49.310;8.646;2023-05-07T06:17:53;1.58;;;1.20;;
19735;SDS011;32064;49.310;8.646;2023-05-07T06:20:20;2.97;;;1.38;;
19735;SDS011;32064;49.310;8.646;2023-05-07T06:22:46;2.58;;;1.00;;
19735;SDS011;32064;49.310;8.646;2023-05-07T06:25:11;2.80;;;1.85;;
19735;SDS011;32064;49.310;8.646;2023-05-07T06:27:36;2.35;;;1.30;;
19735;SDS011;32064;49.310;8.646;2023-05-07T06:30:02;2.33;;;1.08;;
19735;SDS011;32064;49.310;8.646;2023-05-07T06:32:28;1.30;;;1.10;;
19735;SDS011;32064;49.310;8.646;2023-05-07T06:34:53;1.90;;;1.20;;
19735;SDS011;32064;49.310;8.646;2023-05-07T06:37:18;1.17;;;1.00;;
19735;SDS011;32064;49.310;8.646;2023-05-07T06:39:44;1.23;;;1.13;;
19735;SDS011;32064;49.310;8.646;2023-05-07T06:42:09;3.95;;;1.50;;
19735;SDS011;32064;49.310;8.646;2023-05-07T06:44:34;3.17;;;1.45;;
19735;SDS011;32064;49.310;8.646;2023-05-07T06:47:00;1.40;;;1.20;;
19735;SDS011;32064;49.310;8.646;2023-05-07T06:49:26;1.15;;;1.05;;
19735;SDS011;32064;49.310;8.646;2023-05-07T06:51:51;2.05;;;1.08;;
19735;SDS011;32064;49.310;8.646;2023-05-07T06:54:17;1.63;;;1.13;;
19735;SDS011;32064;49.310;8.646;2023-05-07T06:56:42;1.27;;;1.17;;
19735;SDS011;32064;49.310;8.646;2023-05-07T06:59:07;2.75;;;1.23;;
19735;SDS011;32064;49.310;8.646;2023-05-07T07:01:33;1.15;;;1.00;;
19735;SDS011;32064;49.310;8.646;2023-05-07T07:03:58;2.10;;;1.38;;
19735;SDS011;32064;49.310;8.646;2023-05-07T07:06:24;2.00;;;1.00;;
19735;SDS011;32064;49.310;8.646;2023-05-07T07:08:50;4.65;;;1.40;;
19735;SDS011;32064;49.310;8.646;2023-05-07T07:11:16;1.40;;;1.27;;
19735;SDS011;32064;49.310;8.646;2023-05-07T07:13:41;2.42;;;1.00;;
19735;SDS011;32064;49.310;8.646;2023-05-07T07:16:07;2.45;;;1.30;;
19735;SDS011;32064;49.310;8.646;2023-05-07T07:18:33;1.20;;;1.10;;
19735;SDS011;32064;49.310;8.646;2023-05-07T07:20:58;1.15;;;1.05;;
19735;SDS011;32064;49.310;8.646;2023-05-07T07:23:24;17.33;;;1.30;;
19735;SDS011;32064;49.310;8.646;2023-05-07T07:25:50;1.63;;;1.08;;
19735;SDS011;32064;49.310;8.646;2023-05-07T07:28:15;1.48;;;1.20;;
19735;SDS011;32064;49.310;8.646;2023-05-07T07:30:40;1.10;;;1.00;;
19735;SDS011;32064;49.310;8.646;2023-05-07T07:33:06;3.17;;;1.10;;
19735;SDS011;32064;49.310;8.646;2023-05-07T07:35:32;1.83;;;1.20;;
19735;SDS011;32064;49.310;8.646;2023-05-07T07:37:57;1.67;;;1.17;;
19735;SDS011;32064;49.310;8.646;2023-05-07T07:40:23;1.50;;;1.20;;
19735;SDS011;32064;49.310;8.646;2023-05-07T07:42:50;1.63;;;1.20;;
19735;SDS011;32064;49.310;8.646;2023-05-07T07:45:15;1.30;;;1.20;;
19735;SDS011;32064;49.310;8.646;2023-05-07T07:47:41;1.65;;;1.10;;
19735;SDS011;32064;49.310;8.646;2023-05-07T07:50:06;1.85;;;1.02;;
19735;SDS011;32064;49.310;8.646;2023-05-07T07:52:33;1.15;;;1.13;;
19735;SDS011;32064;49.310;8.646;2023-05-07T07:54:58;1.20;;;1.08;;
19735;SDS011;32064;49.310;8.646;2023-05-07T07:57:24;8.07;;;1.25;;
19735;SDS011;32064;49.310;8.646;2023-05-07T07:59:50;1.23;;;1.10;;
19735;SDS011;32064;49.310;8.646;2023-05-07T08:02:15;1.58;;;1.35;;
19735;SDS011;32064;49.310;8.646;2023-05-07T08:04:41;1.10;;;1.10;;
19735;SDS011;32064;49.310;8.646;2023-05-07T08:07:08;2.78;;;1.23;;
19735;SDS011;32064;49.310;8.646;2023-05-07T08:09:34;1.40;;;1.30;;
19735;SDS011;32064;49.310;8.646;2023-05-07T08:12:00;1.38;;;1.20;;
19735;SDS011;32064;49.310;8.646;2023-05-07T08:14:26;1.15;;;0.98;;
19735;SDS011;32064;49.310;8.646;2023-05-07T08:16:53;1.95;;;0.93;;
19735;SDS011;32064;49.310;8.646;2023-05-07T08:19:19;0.93;;;0.90;;
19735;SDS011;32064;49.310;8.646;2023-05-07T08:21:45;1.52;;;1.20;;
19735;SDS011;32064;49.310;8.646;2023-05-07T08:24:12;2.05;;;0.93;;
19735;SDS011;32064;49.310;8.646;2023-05-07T08:26:41;1.35;;;1.10;;
19735;SDS011;32064;49.310;8.646;2023-05-07T08:29:07;1.40;;;1.30;;
19735;SDS011;32064;49.310;8.646;2023-05-07T08:31:32;2.28;;;1.25;;
19735;SDS011;32064;49.310;8.646;2023-05-07T08:33:58;1.95;;;1.08;;
19735;SDS011;32064;49.310;8.646;2023-05-07T08:36:24;1.30;;;1.20;;
19735;SDS011;32064;49.310;8.646;2023-05-07T08:38:50;1.70;;;1.23;;
19735;SDS011;32064;49.310;8.646;2023-05-07T08:41:16;1.73;;;1.30;;
19735;SDS011;32064;49.310;8.646;2023-05-07T08:43:42;1.30;;;1.20;;
19735;SDS011;32064;49.310;8.646;2023-05-07T08:46:13;3.75;;;1.63;;
19735;SDS011;32064;49.310;8.646;2023-05-07T08:48:45;0.90;;;0.90;;
19735;SDS011;32064;49.310;8.646;2023-05-07T08:51:17;2.28;;;1.20;;
19735;SDS011;32064;49.310;8.646;2023-05-07T08:53:43;1.52;;;1.30;;
19735;SDS011;32064;49.310;8.646;2023-05-07T08:56:10;1.30;;;1.10;;
19735;SDS011;32064;49.310;8.646;2023-05-07T08:58:36;1.55;;;1.38;;
19735;SDS011;32064;49.310;8.646;2023-05-07T09:01:07;1.48;;;1.20;;
19735;SDS011;32064;49.310;8.646;2023-05-07T09:03:34;1.35;;;1.10;;
19735;SDS011;32064;49.310;8.646;2023-05-07T09:06:00;3.25;;;1.20;;
19735;SDS011;32064;49.310;8.646;2023-05-07T09:08:25;1.08;;;0.98;;
19735;SDS011;32064;49.310;8.646;2023-05-07T09:10:52;3.03;;;1.50;;
19735;SDS011;32064;49.310;8.646;2023-05-07T09:13:18;0.95;;;0.85;;
19735;SDS011;32064;49.310;8.646;2023-05-07T09:15:44;1.48;;;1.17;;
19735;SDS011;32064;49.310;8.646;2023-05-07T09:18:09;1.80;;;1.40;;
19735;SDS011;32064;49.310;8.646;2023-05-07T09:20:38;2.25;;;1.20;;
19735;SDS011;32064;49.310;8.646;2023-05-07T09:23:05;1.38;;;1.10;;
19735;SDS011;32064;49.310;8.646;2023-05-07T09:25:32;1.00;;;0.95;;
19735;SDS011;32064;49.310;8.646;2023-05-07T09:28:02;1.58;;;1.08;;
19735;SDS011;32064;49.310;8.646;2023-05-07T09:30:29;0.98;;;0.98;;
19735;SDS011;32064;49.310;8.646;2023-05-07T09:32:57;2.60;;;1.20;;
19735;SDS011;32064;49.310;8.646;2023-05-07T09:35:24;1.20;;;1.00;;
19735;SDS011;32064;49.310;8.646;2023-05-07T09:37:52;2.55;;;1.13;;
19735;SDS011;32064;49.310;8.646;2023-05-07T09:40:21;1.80;;;1.20;;
19735;SDS011;32064;49.310;8.646;2023-05-07T09:42:49;1.33;;;1.23;;
19735;SDS011;32064;49.310;8.646;2023-05-07T09:45:15;1.58;;;1.30;;
19735;SDS011;32064;49.310;8.646;2023-05-07T09:47:42;2.63;;;1.40;;
19735;SDS011;32064;49.310;8.646;2023-05-07T09:50:11;1.27;;;1.17;;
19735;SDS011;32064;49.310;8.646;2023-05-07T09:52:39;1.30;;;1.17;;
19735;SDS011;32064;49.310;8.646;2023-05-07T09:55:06;1.30;;;1.20;;
19735;SDS011;32064;49.310;8.646;2023-05-07T09:57:32;2.05;;;1.23;;
19735;SDS011;32064;49.310;8.646;2023-05-07T09:59:59;2.58;;;1.13;;
19735;SDS011;32064;49.310;8.646;2023-05-07T10:02:29;2.92;;;1.10;;
19735;SDS011;32064;49.310;8.646;2023-05-07T10:04:56;1.30;;;1.20;;
19735;SDS011;32064;49.310;8.646;2023-05-07T10:07:23;1.77;;;1.25;;
19735;SDS011;32064;49.310;8.646;2023-05-07T10:09:50;3.28;;;1.33;;
19735;SDS011;32064;49.310;8.646;2023-05-07T10:12:16;1.77;;;1.20;;
19735;SDS011;32064;49.310;8.646;2023-05-07T10:14:43;2.08;;;1.45;;
19735;SDS011;32064;49.310;8.646;2023-05-07T10:17:10;2.88;;;1.42;;
19735;SDS011;32064;49.310;8.646;2023-05-07T10:19:37;1.20;;;1.10;;
19735;SDS011;32064;49.310;8.646;2023-05-07T10:22:04;1.77;;;1.20;;
19735;SDS011;32064;49.310;8.646;2023-05-07T10:24:34;1.73;;;1.10;;
19735;SDS011;32064;49.310;8.646;2023-05-07T10:27:02;1.40;;;1.30;;
19735;SDS011;32064;49.310;8.646;2023-05-07T10:32:51;3.97;;;1.10;;
19735;SDS011;32064;49.310;8.646;2023-05-07T10:35:23;2.35;;;0.93;;
19735;SDS011;32064;49.310;8.646;2023-05-07T10:37:51;3.90;;;1.08;;
19735;SDS011;32064;49.310;8.646;2023-05-07T10:40:17;2.22;;;1.20;;
19735;SDS011;32064;49.310;8.646;2023-05-07T10:42:54;1.52;;;1.10;;
19735;SDS011;32064;49.310;8.646;2023-05-07T10:45:24;1.00;;;1.00;;
19735;SDS011;32064;49.310;8.646;2023-05-07T10:50:42;2.55;;;1.20;;
19735;SDS011;32064;49.310;8.646;2023-05-07T10:55:47;1.20;;;1.10;;
19735;SDS011;32064;49.310;8.646;2023-05-07T10:58:24;1.67;;;1.13;;
19735;SDS011;32064;49.310;8.646;2023-05-07T11:00:57;2.50;;;1.00;;
19735;SDS011;32064;49.310;8.646;2023-05-07T11:03:24;2.10;;;1.00;;
19735;SDS011;32064;49.310;8.646;2023-05-07T11:06:09;3.45;;;1.20;;
19735;SDS011;32064;49.310;8.646;2023-05-07T11:11:17;2.25;;;1.48;;
19735;SDS011;32064;49.310;8.646;2023-05-07T11:13:43;1.88;;;1.08;;
19735;SDS011;32064;49.310;8.646;2023-05-07T11:16:20;1.45;;;1.17;;
19735;SDS011;32064;49.310;8.646;2023-05-07T11:18:50;1.23;;;1.02;;
19735;SDS011;32064;49.310;8.646;2023-05-07T11:24:02;2.70;;;1.10;;
19735;SDS011;32064;49.310;8.646;2023-05-07T11:26:29;1.40;;;1.20;;
19735;SDS011;32064;49.310;8.646;2023-05-07T11:29:10;2.00;;;0.93;;
19735;SDS011;32064;49.310;8.646;2023-05-07T11:31:36;3.00;;;1.13;;
19735;SDS011;32064;49.310;8.646;2023-05-07T11:34:02;1.65;;;1.17;;
19735;SDS011;32064;49.310;8.646;2023-05-07T11:36:30;2.60;;;1.83;;
19735;SDS011;32064;49.310;8.646;2023-05-07T11:38:57;2.72;;;0.95;;
19735;SDS011;32064;49.310;8.646;2023-05-07T11:41:22;3.25;;;1.40;;
19735;SDS011;32064;49.310;8.646;2023-05-07T11:43:54;0.85;;;0.82;;
19735;SDS011;32064;49.310;8.646;2023-05-07T11:46:21;1.38;;;0.90;;
19735;SDS011;32064;49.310;8.646;2023-05-07T11:48:47;1.58;;;1.23;;
19735;SDS011;32064;49.310;8.646;2023-05-07T11:51:12;1.30;;;0.98;;
19735;SDS011;32064;49.310;8.646;2023-05-07T11:53:39;1.25;;;0.98;;
19735;SDS011;32064;49.310;8.646;2023-05-07T11:56:06;1.50;;;1.23;;
19735;SDS011;32064;49.310;8.646;2023-05-07T11:58:36;1.13;;;1.02;;
19735;SDS011;32064;49.310;8.646;2023-05-07T12:01:02;2.10;;;1.10;;
19735;SDS011;32064;49.310;8.646;2023-05-07T12:03:28;3.83;;;1.05;;
19735;SDS011;32064;49.310;8.646;2023-05-07T12:05:53;2.78;;;1.00;;
19735;SDS011;32064;49.310;8.646;2023-05-07T12:08:19;1.23;;;1.10;;
19735;SDS011;32064;49.310;8.646;2023-05-07T12:10:47;0.93;;;0.90;;
19735;SDS011;32064;49.310;8.646;2023-05-07T12:13:15;2.65;;;1.20;;
19735;SDS011;32064;49.310;8.646;2023-05-07T12:15:41;3.60;;;1.40;;
19735;SDS011;32064;49.310;8.646;2023-05-07T12:18:07;1.20;;;1.10;;
19735;SDS011;32064;49.310;8.646;2023-05-07T12:20:34;1.13;;;1.10;;
19735;SDS011;32064;49.310;8.646;2023-05-07T12:23:00;2.47;;;1.10;;
19735;SDS011;32064;49.310;8.646;2023-05-07T12:25:26;1.98;;;1.10;;
19735;SDS011;32064;49.310;8.646;2023-05-07T12:27:52;1.70;;;1.30;;
19735;SDS011;32064;49.310;8.646;2023-05-07T12:30:18;1.20;;;1.10;;
19735;SDS011;32064;49.310;8.646;2023-05-07T12:32:44;1.73;;;1.13;;
19735;SDS011;32064;49.310;8.646;2023-05-07T12:35:10;0.90;;;0.90;;
19735;SDS011;32064;49.310;8.646;2023-05-07T12:37:36;1.85;;;1.15;;
19735;SDS011;32064;49.310;8.646;2023-05-07T12:40:05;3.25;;;1.15;;
19735;SDS011;32064;49.310;8.646;2023-05-07T12:42:37;2.75;;;1.23;;
19735;SDS011;32064;49.310;8.646;2023-05-07T12:45:10;2.30;;;1.25;;
19735;SDS011;32064;49.310;8.646;2023-05-07T12:47:36;1.00;;;1.00;;
19735;SDS011;32064;49.310;8.646;2023-05-07T12:50:04;0.90;;;0.90;;
19735;SDS011;32064;49.310;8.646;2023-05-07T12:52:30;1.77;;;1.23;;
19735;SDS011;32064;49.310;8.646;2023-05-07T12:54:56;1.45;;;1.27;;
19735;SDS011;32064;49.310;8.646;2023-05-07T12:57:21;2.20;;;1.15;;
19735;SDS011;32064;49.310;8.646;2023-05-07T12:59:47;2.33;;;1.00;;
19735;SDS011;32064;49.310;8.646;2023-05-07T13:02:12;1.30;;;1.20;;
19735;SDS011;32064;49.310;8.646;2023-05-07T13:04:38;1.33;;;1.20;;
19735;SDS011;32064;49.310;8.646;2023-05-07T13:07:03;3.70;;;1.20;;
19735;SDS011;32064;49.310;8.646;2023-05-07T13:09:29;2.88;;;1.30;;
19735;SDS011;32064;49.310;8.646;2023-05-07T13:11:54;2.90;;;1.02;;
19735;SDS011;32064;49.310;8.646;2023-05-07T13:14:20;3.42;;;1.30;;
19735;SDS011;32064;49.310;8.646;2023-05-07T13:16:46;2.78;;;1.10;;
19735;SDS011;32064;49.310;8.646;2023-05-07T13:19:12;1.27;;;1.17;;
19735;SDS011;32064;49.310;8.646;2023-05-07T13:21:37;2.65;;;1.48;;
19735;SDS011;32064;49.310;8.646;2023-05-07T13:24:03;1.70;;;1.30;;
19735;SDS011;32064;49.310;8.646;2023-05-07T13:26:29;2.38;;;1.55;;
19735;SDS011;32064;49.310;8.646;2023-05-07T13:28:56;1.55;;;0.90;;
19735;SDS011;32064;49.310;8.646;2023-05-07T13:31:21;1.23;;;1.10;;
19735;SDS011;32064;49.310;8.646;2023-05-07T13:33:47;1.35;;;1.13;;
19735;SDS011;32064;49.310;8.646;2023-05-07T13:36:12;2.20;;;1.50;;
19735;SDS011;32064;49.310;8.646;2023-05-07T13:38:38;1.90;;;1.45;;
19735;SDS011;32064;49.310;8.646;2023-05-07T13:41:05;1.77;;;1.33;;
19735;SDS011;32064;49.310;8.646;2023-05-07T13:43:30;3.03;;;0.90;;
19735;SDS011;32064;49.310;8.646;2023-05-07T13:45:56;1.73;;;1.50;;
19735;SDS011;32064;49.310;8.646;2023-05-07T13:48:22;1.77;;;1.58;;
19735;SDS011;32064;49.310;8.646;2023-05-07T13:50:48;2.35;;;1.30;;
19735;SDS011;32064;49.310;8.646;2023-05-07T13:53:13;1.42;;;1.17;;
19735;SDS011;32064;49.310;8.646;2023-05-07T13:55:40;2.47;;;1.52;;
19735;SDS011;32064;49.310;8.646;2023-05-07T13:58:06;2.38;;;1.50;;
19735;SDS011;32064;49.310;8.646;2023-05-07T14:00:31;1.40;;;1.20;;
19735;SDS011;32064;49.310;8.646;2023-05-07T14:02:56;2.13;;;1.40;;
19735;SDS011;32064;49.310;8.646;2023-05-07T14:05:22;1.85;;;1.35;;
19735;SDS011;32064;49.310;8.646;2023-05-07T14:07:49;2.08;;;1.38;;
19735;SDS011;32064;49.310;8.646;2023-05-07T14:10:17;3.88;;;1.83;;
19735;SDS011;32064;49.310;8.646;2023-05-07T14:12:43;3.88;;;2.00;;
19735;SDS011;32064;49.310;8.646;2023-05-07T14:15:09;2.67;;;1.17;;
19735;SDS011;32064;49.310;8.646;2023-05-07T14:17:35;2.08;;;0.98;;
19735;SDS011;32064;49.310;8.646;2023-05-07T14:20:01;4.57;;;1.50;;
19735;SDS011;32064;49.310;8.646;2023-05-07T14:22:26;4.68;;;1.60;;
19735;SDS011;32064;49.310;8.646;2023-05-07T14:24:52;7.78;;;1.95;;
19735;SDS011;32064;49.310;8.646;2023-05-07T14:27:17;3.50;;;1.52;;
19735;SDS011;32064;49.310;8.646;2023-05-07T14:29:42;4.32;;;1.48;;
19735;SDS011;32064;49.310;8.646;2023-05-07T14:32:08;6.38;;;1.50;;
19735;SDS011;32064;49.310;8.646;2023-05-07T14:34:34;4.78;;;1.38;;
19735;SDS011;32064;49.310;8.646;2023-05-07T14:36:59;6.05;;;1.65;;
19735;SDS011;32064;49.310;8.646;2023-05-07T14:39:25;5.50;;;1.27;;
19735;SDS011;32064;49.310;8.646;2023-05-07T14:41:51;2.45;;;1.20;;
19735;SDS011;32064;49.310;8.646;2023-05-07T14:44:17;7.97;;;1.90;;
19735;SDS011;32064;49.310;8.646;2023-05-07T14:46:42;4.47;;;1.55;;
19735;SDS011;32064;49.310;8.646;2023-05-07T14:49:08;2.40;;;1.02;;
19735;SDS011;32064;49.310;8.646;2023-05-07T14:51:41;3.63;;;0.98;;
19735;SDS011;32064;49.310;8.646;2023-05-07T14:54:07;1.33;;;0.98;;
19735;SDS011;32064;49.310;8.646;2023-05-07T14:56:32;2.92;;;1.75;;